地図

経路データ

SID SEASON NUMBER BASIN SUBBASIN NAME ISO_TIME NATURE LAT LON WMO_WIND WMO_PRES WMO_AGENCY TRACK_TYPE DIST2LAND LANDFALL IFLAG USA_AGENCY USA_ATCF_ID USA_LAT USA_LON USA_RECORD USA_STATUS USA_WIND USA_PRES USA_SSHS USA_R34_NE USA_R34_SE USA_R34_SW USA_R34_NW USA_R50_NE USA_R50_SE USA_R50_SW USA_R50_NW USA_R64_NE USA_R64_SE USA_R64_SW USA_R64_NW USA_POCI USA_ROCI USA_RMW USA_EYE TOKYO_LAT TOKYO_LON TOKYO_GRADE TOKYO_WIND TOKYO_PRES TOKYO_R50_DIR TOKYO_R50_LONG TOKYO_R50_SHORT TOKYO_R30_DIR TOKYO_R30_LONG TOKYO_R30_SHORT TOKYO_LAND CMA_LAT CMA_LON CMA_CAT CMA_WIND CMA_PRES HKO_LAT HKO_LON HKO_CAT HKO_WIND HKO_PRES NEWDELHI_LAT NEWDELHI_LON NEWDELHI_GRADE NEWDELHI_WIND NEWDELHI_PRES NEWDELHI_CI NEWDELHI_DP NEWDELHI_POCI REUNION_LAT REUNION_LON REUNION_TYPE REUNION_WIND REUNION_PRES REUNION_TNUM REUNION_CI REUNION_RMW REUNION_R34_NE REUNION_R34_SE REUNION_R34_SW REUNION_R34_NW REUNION_R50_NE REUNION_R50_SE REUNION_R50_SW REUNION_R50_NW REUNION_R64_NE REUNION_R64_SE REUNION_R64_SW REUNION_R64_NW BOM_LAT BOM_LON BOM_TYPE BOM_WIND BOM_PRES BOM_TNUM BOM_CI BOM_RMW BOM_R34_NE BOM_R34_SE BOM_R34_SW BOM_R34_NW BOM_R50_NE BOM_R50_SE BOM_R50_SW BOM_R50_NW BOM_R64_NE BOM_R64_SE BOM_R64_SW BOM_R64_NW BOM_ROCI BOM_POCI BOM_EYE BOM_POS_METHOD BOM_PRES_METHOD NADI_LAT NADI_LON NADI_CAT NADI_WIND NADI_PRES WELLINGTON_LAT WELLINGTON_LON WELLINGTON_WIND WELLINGTON_PRES DS824_LAT DS824_LON DS824_STAGE DS824_WIND DS824_PRES TD9636_LAT TD9636_LON TD9636_STAGE TD9636_WIND TD9636_PRES TD9635_LAT TD9635_LON TD9635_WIND TD9635_PRES TD9635_ROCI NEUMANN_LAT NEUMANN_LON NEUMANN_CLASS NEUMANN_WIND NEUMANN_PRES MLC_LAT MLC_LON MLC_CLASS MLC_WIND MLC_PRES USA_GUST BOM_GUST BOM_GUST_PER REUNION_GUST REUNION_GUST_PER USA_SEAHGT USA_SEARAD_NE USA_SEARAD_SE USA_SEARAD_SW USA_SEARAD_NW STORM_SPEED STORM_DIR
1896208N21090 1896 20 NI BB NOT_NAMED 1896-07-26 00:00:00 TS 21.3000 89.7000 main 54 54 _________O____ -1 21.3000 89.7000 TC 64 0 0
1896208N21090 1896 20 NI BB NOT_NAMED 1896-07-26 03:00:00 TS 21.3000 89.7000 main 54 54 _________PO___ -1 21.3000 89.7000 TC 64 21.3000 89.7000 4 0 0
1896208N21090 1896 20 NI BB NOT_NAMED 1896-07-26 06:00:00 TS 21.3021 89.6800 main 54 54 _________OP___ -1 21.3000 89.7000 TC 64 21.3052 89.6501 4 0 275
1896208N21090 1896 20 NI BB NOT_NAMED 1896-07-26 09:00:00 TS 21.3035 89.6658 main 54 54 _________PP___ -1 21.3000 89.7000 TC 64 21.3082 89.6202 4 0 0
1896208N21090 1896 20 NI BB NOT_NAMED 1896-07-26 12:00:00 TS 21.3036 89.6651 main 54 54 _________OP___ -1 21.3000 89.7000 TC 64 21.3072 89.6302 4 0 95
1896208N21090 1896 20 NI BB NOT_NAMED 1896-07-26 15:00:00 TS 21.3000 89.7000 main 54 54 _________PO___ -1 21.3000 89.7000 TC 64 21.3000 89.7000 4 1 96
1896208N21090 1896 20 NI BB NOT_NAMED 1896-07-26 18:00:00 TS 21.2933 89.7648 main 55 55 _________OP___ -1 21.3000 89.7000 TC 64 21.2865 89.8296 4 2 96
1896208N21090 1896 20 NI BB NOT_NAMED 1896-07-26 21:00:00 TS 21.2836 89.8646 main 56 55 _________PP___ -1 21.2922 89.7899 TC 64 21.2751 89.9393 4 0 98
1896208N21090 1896 20 NI BB NOT_NAMED 1896-07-27 00:00:00 TS 21.2881 89.8147 main 55 45 _________OP___ -1 21.3000 89.7000 TC 64 21.2761 89.9293 4 4 275
1896208N21090 1896 20 NI BB NOT_NAMED 1896-07-27 03:00:00 TS 21.3173 89.4749 main 45 22 _________PO___ -1 21.3346 89.2498 TC 55 21.3000 89.7000 4 9 276
1896208N21090 1896 20 NI BB NOT_NAMED 1896-07-27 06:00:00 TS 21.3877 88.8196 main 24 11 _________OP___ -1 21.4000 88.5000 TC 47 21.3754 89.1391 4 14 277
1896208N21090 1896 20 NI BB NOT_NAMED 1896-07-27 09:00:00 TS 21.4916 87.9473 main 24 0 _________PP___ -1 21.5157 87.5380 TC 38 21.4674 88.3565 4 17 276
1896208N21090 1896 20 NI BB NOT_NAMED 1896-07-27 12:00:00 TS 21.5751 86.9727 main 0 0 _________OP___ -1 21.6000 86.5000 TC 30 21.5503 87.4454 4 18 273
1896208N21090 1896 20 NI BB NOT_NAMED 1896-07-27 15:00:00 TS 21.5858 86.0636 main 0 0 _________PO___ -1 21.5717 85.6272 TC 30 21.6000 86.5000 1 17 269
1896208N21090 1896 20 NI BB NOT_NAMED 1896-07-27 18:00:00 TS 21.5374 85.1991 main 0 0 _________OP___ -1 21.5000 84.8000 TC 30 21.5748 85.5983 1 17 266
1896208N21090 1896 20 NI BB NOT_NAMED 1896-07-27 21:00:00 TS 21.4798 84.2917 main 0 0 _________PP___ -1 21.4428 83.8900 TC 30 21.5168 84.6934 1 16 266
1896208N21090 1896 20 NI BB NOT_NAMED 1896-07-28 00:00:00 TS 21.4250 83.4710 main 0 0 _________OP___ -1 21.4000 83.1000 TC 30 21.4501 83.8420 1 14 266
1896208N21090 1896 20 NI BB NOT_NAMED 1896-07-28 03:00:00 TS 21.3921 82.8450 main 0 0 _________PO___ -1 21.3842 82.5901 TC 30 21.4000 83.1000 1 10 268
1896208N21090 1896 20 NI BB NOT_NAMED 1896-07-28 06:00:00 TS 21.3965 82.3617 main 0 0 _________OP___ -1 21.4000 82.2000 TC 30 21.3930 82.5233 1 9 272
1896208N21090 1896 20 NI BB NOT_NAMED 1896-07-28 09:00:00 TS 21.4261 81.9003 main 0 0 _________PP___ -1 21.4424 81.7425 TC 30 21.4098 82.0581 1 8 275
1896208N21090 1896 20 NI BB NOT_NAMED 1896-07-28 12:00:00 TS 21.4734 81.4819 main 0 0 _________OP___ -1 21.5000 81.3000 TC 30 21.4468 81.6637 1 8 277
1896208N21090 1896 20 NI BB NOT_NAMED 1896-07-28 15:00:00 TS 21.5212 81.0925 main 0 0 _________PO___ -1 21.5424 80.8849 TC 30 21.5000 81.3000 1 8 278
1896208N21090 1896 20 NI BB NOT_NAMED 1896-07-28 18:00:00 TS 21.5783 80.6835 main 0 0 _________OP___ -1 21.6000 80.5000 TC 30 21.5565 80.8671 1 8 280
1896208N21090 1896 20 NI BB NOT_NAMED 1896-07-28 21:00:00 TS 21.6600 80.2864 main 0 0 _________PP___ -1 21.6925 80.1126 TC 30 21.6275 80.4602 1 7 284
1896208N21090 1896 20 NI BB NOT_NAMED 1896-07-29 00:00:00 TS 21.7549 79.9491 main 0 0 _________OP___ -1 21.8000 79.8000 TC 30 21.7098 80.0983 1 6 290
1896208N21090 1896 20 NI BB NOT_NAMED 1896-07-29 03:00:00 TS 21.8499 79.7100 main 0 0 _________PO___ -1 21.8999 79.6199 TC 30 21.8000 79.8000 1 4 297
1896208N21090 1896 20 NI BB NOT_NAMED 1896-07-29 06:00:00 TS 21.9462 79.5365 main 0 0 _________OP___ -1 22.0000 79.5000 TC 30 21.8923 79.5730 1 4 302
1896208N21090 1896 20 NI BB NOT_NAMED 1896-07-29 09:00:00 TS 22.0460 79.3762 main 0 0 _________PP___ -1 22.1000 79.3425 TC 30 21.9920 79.4099 1 3 307
1896208N21090 1896 20 NI BB NOT_NAMED 1896-07-29 12:00:00 TS 22.1478 79.2459 main 0 0 _________OP___ -1 22.2000 79.2000 TC 30 22.0956 79.2918 1 3 313
1896208N21090 1896 20 NI BB NOT_NAMED 1896-07-29 15:00:00 TS 22.2500 79.1425 main 0 0 _________PO___ -1 22.3000 79.0850 TC 30 22.2000 79.2000 1 3 320
1896208N21090 1896 20 NI BB NOT_NAMED 1896-07-29 18:00:00 TS 22.3442 79.0677 main 0 0 _________OP___ -1 22.4000 79.0000 TC 30 22.3024 79.1185 1 2 326
1896208N21090 1896 20 NI BB NOT_NAMED 1896-07-29 21:00:00 TS 22.4416 79.0026 main 0 0 _________PP___ -1 22.5000 78.9425 TC 30 22.4027 79.0426 1 2 330
1896208N21090 1896 20 NI BB NOT_NAMED 1896-07-30 00:00:00 TS 22.5345 78.9469 main 0 0 _________OP___ -1 22.6000 78.9000 TC 30 22.5017 78.9704 1 2 329
1896208N21090 1896 20 NI BB NOT_NAMED 1896-07-30 03:00:00 NR 22.6000 78.9000 main 0 __________O___ -1 TC 22.6000 78.9000 1 2 326

IBTrACS Databaseについて

本データベースは、米国NOAAが公開する1842年以降の世界の熱帯低気圧のベストトラックデータアーカイブInternational Best Track Archive for Climate Stewardship (IBTrACS)を、ウェブで閲覧しやすい形式に変換したものです。

最終更新日:2021-10-21